sensor_id;sensor_type;location;lat;lon;timestamp;P1;durP1;ratioP1;P2;durP2;ratioP2
21202;SDS011;10759;51.982;9.232;2023-07-24T00:00:42;2.05;;;1.95;;
21202;SDS011;10759;51.982;9.232;2023-07-24T00:03:10;1.90;;;1.80;;
21202;SDS011;10759;51.982;9.232;2023-07-24T00:05:38;1.90;;;1.80;;
21202;SDS011;10759;51.982;9.232;2023-07-24T00:08:07;3.50;;;2.35;;
21202;SDS011;10759;51.982;9.232;2023-07-24T00:10:35;3.17;;;2.60;;
21202;SDS011;10759;51.982;9.232;2023-07-24T00:13:03;2.00;;;1.90;;
21202;SDS011;10759;51.982;9.232;2023-07-24T00:15:31;2.35;;;2.15;;
21202;SDS011;10759;51.982;9.232;2023-07-24T00:17:59;4.13;;;2.22;;
21202;SDS011;10759;51.982;9.232;2023-07-24T00:20:27;2.47;;;2.28;;
21202;SDS011;10759;51.982;9.232;2023-07-24T00:22:56;2.28;;;2.17;;
21202;SDS011;10759;51.982;9.232;2023-07-24T00:25:25;2.63;;;2.47;;
21202;SDS011;10759;51.982;9.232;2023-07-24T00:27:53;2.33;;;2.22;;
21202;SDS011;10759;51.982;9.232;2023-07-24T00:30:21;2.25;;;2.10;;
21202;SDS011;10759;51.982;9.232;2023-07-24T00:32:49;2.50;;;2.30;;
21202;SDS011;10759;51.982;9.232;2023-07-24T00:35:18;2.70;;;2.50;;
21202;SDS011;10759;51.982;9.232;2023-07-24T00:37:46;2.15;;;2.05;;
21202;SDS011;10759;51.982;9.232;2023-07-24T00:40:14;2.20;;;2.10;;
21202;SDS011;10759;51.982;9.232;2023-07-24T00:42:47;2.20;;;2.00;;
21202;SDS011;10759;51.982;9.232;2023-07-24T00:45:15;2.13;;;1.90;;
21202;SDS011;10759;51.982;9.232;2023-07-24T00:47:44;2.40;;;2.30;;
21202;SDS011;10759;51.982;9.232;2023-07-24T00:50:12;2.33;;;2.22;;
21202;SDS011;10759;51.982;9.232;2023-07-24T00:52:41;2.53;;;2.17;;
21202;SDS011;10759;51.982;9.232;2023-07-24T00:55:10;2.17;;;2.07;;
21202;SDS011;10759;51.982;9.232;2023-07-24T00:57:41;2.50;;;2.30;;
21202;SDS011;10759;51.982;9.232;2023-07-24T01:00:12;2.72;;;2.53;;
21202;SDS011;10759;51.982;9.232;2023-07-24T01:02:40;2.30;;;2.10;;
21202;SDS011;10759;51.982;9.232;2023-07-24T01:05:10;2.58;;;2.38;;
21202;SDS011;10759;51.982;9.232;2023-07-24T01:07:41;2.78;;;2.58;;
21202;SDS011;10759;51.982;9.232;2023-07-24T01:10:10;2.63;;;2.10;;
21202;SDS011;10759;51.982;9.232;2023-07-24T01:12:39;2.92;;;2.72;;
21202;SDS011;10759;51.982;9.232;2023-07-24T01:15:15;2.17;;;2.08;;
21202;SDS011;10759;51.982;9.232;2023-07-24T01:17:50;3.50;;;2.50;;
21202;SDS011;10759;51.982;9.232;2023-07-24T01:20:25;2.40;;;2.20;;
21202;SDS011;10759;51.982;9.232;2023-07-24T01:23:04;2.60;;;2.50;;
21202;SDS011;10759;51.982;9.232;2023-07-24T01:25:49;2.65;;;2.45;;
21202;SDS011;10759;51.982;9.232;2023-07-24T01:28:21;2.58;;;2.38;;
21202;SDS011;10759;51.982;9.232;2023-07-24T01:30:50;2.83;;;2.63;;
21202;SDS011;10759;51.982;9.232;2023-07-24T01:33:19;3.05;;;2.85;;
21202;SDS011;10759;51.982;9.232;2023-07-24T01:35:48;4.13;;;2.90;;
21202;SDS011;10759;51.982;9.232;2023-07-24T01:38:18;3.00;;;2.80;;
21202;SDS011;10759;51.982;9.232;2023-07-24T01:40:47;2.80;;;2.60;;
21202;SDS011;10759;51.982;9.232;2023-07-24T01:43:17;2.90;;;2.70;;
21202;SDS011;10759;51.982;9.232;2023-07-24T01:45:45;3.20;;;3.00;;
21202;SDS011;10759;51.982;9.232;2023-07-24T01:48:13;3.05;;;2.75;;
21202;SDS011;10759;51.982;9.232;2023-07-24T01:50:42;2.50;;;2.30;;
21202;SDS011;10759;51.982;9.232;2023-07-24T01:53:10;6.13;;;3.30;;
21202;SDS011;10759;51.982;9.232;2023-07-24T01:55:38;2.80;;;2.60;;
21202;SDS011;10759;51.982;9.232;2023-07-24T01:58:06;3.33;;;3.03;;
21202;SDS011;10759;51.982;9.232;2023-07-24T02:00:36;2.72;;;2.53;;
21202;SDS011;10759;51.982;9.232;2023-07-24T02:03:04;3.88;;;2.80;;
21202;SDS011;10759;51.982;9.232;2023-07-24T02:05:33;2.80;;;2.60;;
21202;SDS011;10759;51.982;9.232;2023-07-24T02:08:02;2.75;;;2.55;;
21202;SDS011;10759;51.982;9.232;2023-07-24T02:10:30;3.10;;;2.90;;
21202;SDS011;10759;51.982;9.232;2023-07-24T02:12:58;3.15;;;2.95;;
21202;SDS011;10759;51.982;9.232;2023-07-24T02:15:27;2.55;;;2.35;;
21202;SDS011;10759;51.982;9.232;2023-07-24T02:17:56;2.47;;;2.28;;
21202;SDS011;10759;51.982;9.232;2023-07-24T02:20:24;3.22;;;2.70;;
21202;SDS011;10759;51.982;9.232;2023-07-24T02:22:52;3.00;;;2.70;;
21202;SDS011;10759;51.982;9.232;2023-07-24T02:25:20;2.85;;;2.65;;
21202;SDS011;10759;51.982;9.232;2023-07-24T02:27:48;6.78;;;3.22;;
21202;SDS011;10759;51.982;9.232;2023-07-24T02:30:17;2.90;;;2.70;;
21202;SDS011;10759;51.982;9.232;2023-07-24T02:32:45;3.22;;;3.03;;
21202;SDS011;10759;51.982;9.232;2023-07-24T02:35:15;5.30;;;3.33;;
21202;SDS011;10759;51.982;9.232;2023-07-24T02:37:45;3.28;;;3.00;;
21202;SDS011;10759;51.982;9.232;2023-07-24T02:40:13;3.45;;;3.15;;
21202;SDS011;10759;51.982;9.232;2023-07-24T02:42:41;3.72;;;2.72;;
21202;SDS011;10759;51.982;9.232;2023-07-24T02:45:11;3.47;;;2.95;;
21202;SDS011;10759;51.982;9.232;2023-07-24T02:47:39;3.10;;;2.90;;
21202;SDS011;10759;51.982;9.232;2023-07-24T02:50:09;3.22;;;2.92;;
21202;SDS011;10759;51.982;9.232;2023-07-24T02:52:38;4.07;;;3.45;;
21202;SDS011;10759;51.982;9.232;2023-07-24T02:55:07;2.78;;;2.58;;
21202;SDS011;10759;51.982;9.232;2023-07-24T02:57:35;3.03;;;2.83;;
21202;SDS011;10759;51.982;9.232;2023-07-24T03:00:04;3.33;;;3.03;;
21202;SDS011;10759;51.982;9.232;2023-07-24T03:02:33;3.28;;;2.97;;
21202;SDS011;10759;51.982;9.232;2023-07-24T03:05:01;3.38;;;3.08;;
21202;SDS011;10759;51.982;9.232;2023-07-24T03:07:30;4.38;;;3.13;;
21202;SDS011;10759;51.982;9.232;2023-07-24T03:10:00;3.67;;;2.88;;
21202;SDS011;10759;51.982;9.232;2023-07-24T03:12:29;3.22;;;2.92;;
21202;SDS011;10759;51.982;9.232;2023-07-24T03:14:57;3.33;;;3.10;;
21202;SDS011;10759;51.982;9.232;2023-07-24T03:17:25;3.50;;;3.30;;
21202;SDS011;10759;51.982;9.232;2023-07-24T03:19:54;5.55;;;3.70;;
21202;SDS011;10759;51.982;9.232;2023-07-24T03:22:22;3.95;;;3.20;;
21202;SDS011;10759;51.982;9.232;2023-07-24T03:24:50;3.30;;;3.10;;
21202;SDS011;10759;51.982;9.232;2023-07-24T03:27:19;3.53;;;3.22;;
21202;SDS011;10759;51.982;9.232;2023-07-24T03:29:47;4.65;;;3.60;;
21202;SDS011;10759;51.982;9.232;2023-07-24T03:32:16;3.55;;;3.35;;
21202;SDS011;10759;51.982;9.232;2023-07-24T03:34:44;4.07;;;3.17;;
21202;SDS011;10759;51.982;9.232;2023-07-24T03:37:12;3.33;;;3.03;;
21202;SDS011;10759;51.982;9.232;2023-07-24T03:39:40;3.42;;;3.20;;
21202;SDS011;10759;51.982;9.232;2023-07-24T03:42:09;3.17;;;2.88;;
21202;SDS011;10759;51.982;9.232;2023-07-24T03:44:40;7.50;;;3.30;;
21202;SDS011;10759;51.982;9.232;2023-07-24T03:47:08;2.67;;;2.47;;
21202;SDS011;10759;51.982;9.232;2023-07-24T03:49:36;4.97;;;2.60;;
21202;SDS011;10759;51.982;9.232;2023-07-24T03:52:05;4.10;;;2.95;;
21202;SDS011;10759;51.982;9.232;2023-07-24T03:54:33;2.65;;;2.45;;
21202;SDS011;10759;51.982;9.232;2023-07-24T03:57:01;2.67;;;2.47;;
21202;SDS011;10759;51.982;9.232;2023-07-24T03:59:30;2.78;;;2.55;;
21202;SDS011;10759;51.982;9.232;2023-07-24T04:02:00;4.38;;;2.67;;
21202;SDS011;10759;51.982;9.232;2023-07-24T04:04:28;3.28;;;2.78;;
21202;SDS011;10759;51.982;9.232;2023-07-24T04:06:56;6.70;;;2.92;;
21202;SDS011;10759;51.982;9.232;2023-07-24T04:09:25;4.90;;;2.97;;
21202;SDS011;10759;51.982;9.232;2023-07-24T04:11:53;4.05;;;2.35;;
21202;SDS011;10759;51.982;9.232;2023-07-24T04:14:21;3.70;;;2.53;;
21202;SDS011;10759;51.982;9.232;2023-07-24T04:16:49;3.22;;;2.30;;
21202;SDS011;10759;51.982;9.232;2023-07-24T04:19:19;3.30;;;2.70;;
21202;SDS011;10759;51.982;9.232;2023-07-24T04:21:47;3.15;;;2.40;;
21202;SDS011;10759;51.982;9.232;2023-07-24T04:24:16;6.00;;;2.53;;
21202;SDS011;10759;51.982;9.232;2023-07-24T04:26:44;2.25;;;2.05;;
21202;SDS011;10759;51.982;9.232;2023-07-24T04:29:12;2.88;;;2.10;;
21202;SDS011;10759;51.982;9.232;2023-07-24T04:31:40;2.45;;;2.25;;
21202;SDS011;10759;51.982;9.232;2023-07-24T04:34:09;3.92;;;2.22;;
21202;SDS011;10759;51.982;9.232;2023-07-24T04:36:38;3.85;;;2.42;;
21202;SDS011;10759;51.982;9.232;2023-07-24T04:39:06;3.08;;;2.33;;
21202;SDS011;10759;51.982;9.232;2023-07-24T04:41:34;3.75;;;2.55;;
21202;SDS011;10759;51.982;9.232;2023-07-24T04:44:02;5.20;;;2.25;;
21202;SDS011;10759;51.982;9.232;2023-07-24T04:46:31;3.58;;;2.65;;
21202;SDS011;10759;51.982;9.232;2023-07-24T04:49:00;4.53;;;2.05;;
21202;SDS011;10759;51.982;9.232;2023-07-24T04:51:28;6.43;;;2.67;;
21202;SDS011;10759;51.982;9.232;2023-07-24T04:54:00;2.60;;;2.40;;
21202;SDS011;10759;51.982;9.232;2023-07-24T04:56:29;3.60;;;3.28;;
21202;SDS011;10759;51.982;9.232;2023-07-24T04:58:57;4.95;;;2.40;;
21202;SDS011;10759;51.982;9.232;2023-07-24T05:01:26;2.92;;;2.63;;
21202;SDS011;10759;51.982;9.232;2023-07-24T05:03:54;6.40;;;2.47;;
21202;SDS011;10759;51.982;9.232;2023-07-24T05:06:22;2.85;;;2.60;;
21202;SDS011;10759;51.982;9.232;2023-07-24T05:08:51;2.95;;;2.33;;
21202;SDS011;10759;51.982;9.232;2023-07-24T05:11:22;3.25;;;2.95;;
21202;SDS011;10759;51.982;9.232;2023-07-24T05:13:50;4.28;;;2.88;;
21202;SDS011;10759;51.982;9.232;2023-07-24T05:16:19;2.55;;;2.22;;
21202;SDS011;10759;51.982;9.232;2023-07-24T05:18:47;6.10;;;2.95;;
21202;SDS011;10759;51.982;9.232;2023-07-24T05:21:15;7.50;;;3.00;;
21202;SDS011;10759;51.982;9.232;2023-07-24T05:23:43;6.25;;;3.13;;
21202;SDS011;10759;51.982;9.232;2023-07-24T05:26:11;5.22;;;3.58;;
21202;SDS011;10759;51.982;9.232;2023-07-24T05:28:41;3.42;;;3.10;;
21202;SDS011;10759;51.982;9.232;2023-07-24T05:31:09;6.30;;;2.75;;
21202;SDS011;10759;51.982;9.232;2023-07-24T05:33:37;4.82;;;3.25;;
21202;SDS011;10759;51.982;9.232;2023-07-24T05:36:06;3.78;;;3.33;;
21202;SDS011;10759;51.982;9.232;2023-07-24T05:38:34;3.35;;;3.05;;
21202;SDS011;10759;51.982;9.232;2023-07-24T05:41:02;5.75;;;2.78;;
21202;SDS011;10759;51.982;9.232;2023-07-24T05:43:31;6.28;;;3.13;;
21202;SDS011;10759;51.982;9.232;2023-07-24T05:46:01;5.50;;;3.38;;
21202;SDS011;10759;51.982;9.232;2023-07-24T05:48:29;6.75;;;3.00;;
21202;SDS011;10759;51.982;9.232;2023-07-24T05:50:58;5.50;;;3.47;;
21202;SDS011;10759;51.982;9.232;2023-07-24T05:53:27;3.80;;;3.15;;
21202;SDS011;10759;51.982;9.232;2023-07-24T05:55:56;3.83;;;3.00;;
21202;SDS011;10759;51.982;9.232;2023-07-24T05:58:25;6.32;;;3.90;;
21202;SDS011;10759;51.982;9.232;2023-07-24T06:00:54;6.30;;;3.55;;
21202;SDS011;10759;51.982;9.232;2023-07-24T06:03:24;8.45;;;3.92;;
21202;SDS011;10759;51.982;9.232;2023-07-24T06:05:53;6.28;;;4.22;;
21202;SDS011;10759;51.982;9.232;2023-07-24T06:08:22;5.40;;;3.50;;
21202;SDS011;10759;51.982;9.232;2023-07-24T06:10:50;5.10;;;3.47;;
21202;SDS011;10759;51.982;9.232;2023-07-24T06:13:18;4.07;;;3.53;;
21202;SDS011;10759;51.982;9.232;2023-07-24T06:15:47;6.78;;;3.70;;
21202;SDS011;10759;51.982;9.232;2023-07-24T06:18:15;6.20;;;3.42;;
21202;SDS011;10759;51.982;9.232;2023-07-24T06:20:45;3.53;;;3.25;;
21202;SDS011;10759;51.982;9.232;2023-07-24T06:23:16;4.70;;;3.13;;
21202;SDS011;10759;51.982;9.232;2023-07-24T06:25:44;3.72;;;3.28;;
21202;SDS011;10759;51.982;9.232;2023-07-24T06:28:12;9.57;;;3.33;;
21202;SDS011;10759;51.982;9.232;2023-07-24T06:30:41;5.30;;;3.55;;
21202;SDS011;10759;51.982;9.232;2023-07-24T06:33:09;5.78;;;3.30;;
21202;SDS011;10759;51.982;9.232;2023-07-24T06:35:37;4.20;;;3.55;;
21202;SDS011;10759;51.982;9.232;2023-07-24T06:38:06;3.25;;;2.95;;
21202;SDS011;10759;51.982;9.232;2023-07-24T06:40:36;4.63;;;3.72;;
21202;SDS011;10759;51.982;9.232;2023-07-24T06:43:04;3.70;;;3.40;;
21202;SDS011;10759;51.982;9.232;2023-07-24T06:45:32;5.68;;;3.58;;
21202;SDS011;10759;51.982;9.232;2023-07-24T06:48:01;4.95;;;3.60;;
21202;SDS011;10759;51.982;9.232;2023-07-24T06:50:29;7.53;;;3.90;;
21202;SDS011;10759;51.982;9.232;2023-07-24T06:52:57;4.20;;;3.35;;
21202;SDS011;10759;51.982;9.232;2023-07-24T06:55:27;6.95;;;3.50;;
21202;SDS011;10759;51.982;9.232;2023-07-24T06:57:55;4.20;;;3.85;;
21202;SDS011;10759;51.982;9.232;2023-07-24T07:00:23;7.60;;;3.58;;
21202;SDS011;10759;51.982;9.232;2023-07-24T07:02:51;3.78;;;3.47;;
21202;SDS011;10759;51.982;9.232;2023-07-24T07:05:20;3.90;;;3.47;;
21202;SDS011;10759;51.982;9.232;2023-07-24T07:07:48;5.88;;;3.30;;
21202;SDS011;10759;51.982;9.232;2023-07-24T07:10:16;4.30;;;3.90;;
21202;SDS011;10759;51.982;9.232;2023-07-24T07:12:46;5.03;;;3.58;;
21202;SDS011;10759;51.982;9.232;2023-07-24T07:15:14;6.03;;;3.65;;
21202;SDS011;10759;51.982;9.232;2023-07-24T07:17:42;3.20;;;3.00;;
21202;SDS011;10759;51.982;9.232;2023-07-24T07:20:11;5.55;;;3.50;;
21202;SDS011;10759;51.982;9.232;2023-07-24T07:22:39;6.18;;;4.22;;
21202;SDS011;10759;51.982;9.232;2023-07-24T07:25:07;4.72;;;4.18;;
21202;SDS011;10759;51.982;9.232;2023-07-24T07:27:36;5.85;;;5.00;;
21202;SDS011;10759;51.982;9.232;2023-07-24T07:30:06;4.32;;;3.97;;
21202;SDS011;10759;51.982;9.232;2023-07-24T07:32:35;3.92;;;3.63;;
21202;SDS011;10759;51.982;9.232;2023-07-24T07:35:04;4.47;;;4.05;;
21202;SDS011;10759;51.982;9.232;2023-07-24T07:37:33;4.90;;;4.35;;
21202;SDS011;10759;51.982;9.232;2023-07-24T07:40:01;4.75;;;4.35;;
21202;SDS011;10759;51.982;9.232;2023-07-24T07:42:31;3.83;;;3.53;;
21202;SDS011;10759;51.982;9.232;2023-07-24T07:44:59;5.47;;;3.88;;
21202;SDS011;10759;51.982;9.232;2023-07-24T07:47:29;5.85;;;3.92;;
21202;SDS011;10759;51.982;9.232;2023-07-24T07:49:57;4.60;;;4.20;;
21202;SDS011;10759;51.982;9.232;2023-07-24T07:52:25;3.60;;;3.30;;
21202;SDS011;10759;51.982;9.232;2023-07-24T07:54:53;4.35;;;3.95;;
21202;SDS011;10759;51.982;9.232;2023-07-24T07:57:24;5.40;;;3.75;;
21202;SDS011;10759;51.982;9.232;2023-07-24T07:59:52;4.90;;;4.50;;
21202;SDS011;10759;51.982;9.232;2023-07-24T08:02:20;4.43;;;4.03;;
21202;SDS011;10759;51.982;9.232;2023-07-24T08:04:50;8.18;;;4.70;;
21202;SDS011;10759;51.982;9.232;2023-07-24T08:07:18;4.63;;;4.13;;
21202;SDS011;10759;51.982;9.232;2023-07-24T08:09:46;4.75;;;4.35;;
21202;SDS011;10759;51.982;9.232;2023-07-24T08:12:14;5.10;;;4.68;;
21202;SDS011;10759;51.982;9.232;2023-07-24T08:14:43;5.05;;;4.57;;
21202;SDS011;10759;51.982;9.232;2023-07-24T08:17:11;5.38;;;4.97;;
21202;SDS011;10759;51.982;9.232;2023-07-24T08:19:39;4.93;;;4.53;;
21202;SDS011;10759;51.982;9.232;2023-07-24T08:22:09;5.07;;;4.68;;
21202;SDS011;10759;51.982;9.232;2023-07-24T08:24:38;4.47;;;4.10;;
21202;SDS011;10759;51.982;9.232;2023-07-24T08:27:06;4.53;;;4.13;;
21202;SDS011;10759;51.982;9.232;2023-07-24T08:29:34;4.25;;;3.85;;
21202;SDS011;10759;51.982;9.232;2023-07-24T08:32:04;5.65;;;4.45;;
21202;SDS011;10759;51.982;9.232;2023-07-24T08:34:33;4.50;;;3.72;;
21202;SDS011;10759;51.982;9.232;2023-07-24T08:37:01;3.83;;;3.55;;
21202;SDS011;10759;51.982;9.232;2023-07-24T08:39:31;4.18;;;3.78;;
21202;SDS011;10759;51.982;9.232;2023-07-24T08:42:00;4.07;;;3.78;;
21202;SDS011;10759;51.982;9.232;2023-07-24T08:44:36;4.28;;;3.97;;
21202;SDS011;10759;51.982;9.232;2023-07-24T08:47:06;4.40;;;4.00;;
21202;SDS011;10759;51.982;9.232;2023-07-24T08:49:38;3.88;;;3.60;;
21202;SDS011;10759;51.982;9.232;2023-07-24T08:54:46;3.90;;;3.60;;
21202;SDS011;10759;51.982;9.232;2023-07-24T08:57:16;4.38;;;4.07;;
21202;SDS011;10759;51.982;9.232;2023-07-24T08:59:46;4.30;;;4.05;;
21202;SDS011;10759;51.982;9.232;2023-07-24T09:02:14;3.95;;;3.58;;
21202;SDS011;10759;51.982;9.232;2023-07-24T09:04:42;4.68;;;4.22;;
21202;SDS011;10759;51.982;9.232;2023-07-24T09:07:10;4.82;;;4.43;;
21202;SDS011;10759;51.982;9.232;2023-07-24T09:09:39;4.70;;;4.30;;
21202;SDS011;10759;51.982;9.232;2023-07-24T09:12:12;5.32;;;4.30;;
21202;SDS011;10759;51.982;9.232;2023-07-24T09:14:43;4.50;;;4.18;;
21202;SDS011;10759;51.982;9.232;2023-07-24T09:17:12;5.10;;;4.28;;
21202;SDS011;10759;51.982;9.232;2023-07-24T09:19:41;4.93;;;4.53;;
21202;SDS011;10759;51.982;9.232;2023-07-24T09:22:10;4.65;;;4.25;;
21202;SDS011;10759;51.982;9.232;2023-07-24T09:24:49;6.57;;;4.80;;
21202;SDS011;10759;51.982;9.232;2023-07-24T09:27:20;4.43;;;4.03;;
21202;SDS011;10759;51.982;9.232;2023-07-24T09:29:51;4.90;;;4.30;;
21202;SDS011;10759;51.982;9.232;2023-07-24T09:32:20;5.05;;;4.65;;
21202;SDS011;10759;51.982;9.232;2023-07-24T09:34:50;5.53;;;5.03;;
21202;SDS011;10759;51.982;9.232;2023-07-24T09:37:24;5.30;;;4.90;;
21202;SDS011;10759;51.982;9.232;2023-07-24T09:39:53;5.50;;;4.93;;
21202;SDS011;10759;51.982;9.232;2023-07-24T09:45:27;5.97;;;5.57;;
21202;SDS011;10759;51.982;9.232;2023-07-24T09:48:02;5.80;;;5.30;;
21202;SDS011;10759;51.982;9.232;2023-07-24T09:50:36;6.25;;;5.72;;
21202;SDS011;10759;51.982;9.232;2023-07-24T09:53:05;5.50;;;5.00;;
21202;SDS011;10759;51.982;9.232;2023-07-24T09:55:42;5.32;;;4.88;;
21202;SDS011;10759;51.982;9.232;2023-07-24T09:58:16;5.90;;;5.22;;
21202;SDS011;10759;51.982;9.232;2023-07-24T10:00:48;4.93;;;4.53;;
21202;SDS011;10759;51.982;9.232;2023-07-24T10:03:18;5.45;;;4.95;;
21202;SDS011;10759;51.982;9.232;2023-07-24T10:05:47;5.18;;;4.68;;
21202;SDS011;10759;51.982;9.232;2023-07-24T10:08:17;5.30;;;4.88;;
21202;SDS011;10759;51.982;9.232;2023-07-24T10:10:46;5.27;;;4.87;;
21202;SDS011;10759;51.982;9.232;2023-07-24T10:13:19;5.45;;;5.05;;
21202;SDS011;10759;51.982;9.232;2023-07-24T10:15:48;5.18;;;4.78;;
21202;SDS011;10759;51.982;9.232;2023-07-24T10:18:17;5.03;;;4.72;;
21202;SDS011;10759;51.982;9.232;2023-07-24T10:20:59;5.18;;;4.72;;
21202;SDS011;10759;51.982;9.232;2023-07-24T10:23:28;5.15;;;4.80;;
21202;SDS011;10759;51.982;9.232;2023-07-24T10:26:01;5.38;;;4.97;;
21202;SDS011;10759;51.982;9.232;2023-07-24T10:28:33;4.88;;;4.47;;
21202;SDS011;10759;51.982;9.232;2023-07-24T10:31:18;5.43;;;5.03;;
21202;SDS011;10759;51.982;9.232;2023-07-24T10:33:47;5.38;;;4.97;;
21202;SDS011;10759;51.982;9.232;2023-07-24T10:36:17;5.38;;;4.88;;
21202;SDS011;10759;51.982;9.232;2023-07-24T10:38:46;5.80;;;5.30;;
21202;SDS011;10759;51.982;9.232;2023-07-24T10:41:19;5.22;;;4.82;;
21202;SDS011;10759;51.982;9.232;2023-07-24T10:43:50;5.57;;;5.18;;
21202;SDS011;10759;51.982;9.232;2023-07-24T10:46:20;5.88;;;5.47;;
21202;SDS011;10759;51.982;9.232;2023-07-24T10:48:49;5.22;;;4.82;;
21202;SDS011;10759;51.982;9.232;2023-07-24T10:51:19;5.60;;;4.93;;
21202;SDS011;10759;51.982;9.232;2023-07-24T10:53:49;4.80;;;4.40;;
21202;SDS011;10759;51.982;9.232;2023-07-24T10:56:17;5.30;;;4.88;;
21202;SDS011;10759;51.982;9.232;2023-07-24T10:58:46;5.57;;;4.80;;
21202;SDS011;10759;51.982;9.232;2023-07-24T11:01:16;5.30;;;5.00;;
21202;SDS011;10759;51.982;9.232;2023-07-24T11:03:46;5.57;;;5.07;;
21202;SDS011;10759;51.982;9.232;2023-07-24T11:06:17;5.50;;;5.00;;
21202;SDS011;10759;51.982;9.232;2023-07-24T11:08:52;5.18;;;4.80;;
21202;SDS011;10759;51.982;9.232;2023-07-24T11:11:27;5.38;;;4.97;;
21202;SDS011;10759;51.982;9.232;2023-07-24T11:13:56;5.65;;;5.20;;
21202;SDS011;10759;51.982;9.232;2023-07-24T11:16:26;5.15;;;4.63;;
21202;SDS011;10759;51.982;9.232;2023-07-24T11:18:56;4.75;;;4.28;;
21202;SDS011;10759;51.982;9.232;2023-07-24T11:21:25;4.75;;;4.38;;
21202;SDS011;10759;51.982;9.232;2023-07-24T11:23:53;4.70;;;4.30;;
21202;SDS011;10759;51.982;9.232;2023-07-24T11:26:23;5.00;;;4.50;;
21202;SDS011;10759;51.982;9.232;2023-07-24T11:28:53;4.40;;;4.10;;
21202;SDS011;10759;51.982;9.232;2023-07-24T11:31:21;4.63;;;3.90;;
21202;SDS011;10759;51.982;9.232;2023-07-24T11:33:51;4.60;;;4.30;;
21202;SDS011;10759;51.982;9.232;2023-07-24T11:36:20;4.63;;;4.32;;
21202;SDS011;10759;51.982;9.232;2023-07-24T11:38:49;4.50;;;4.15;;
21202;SDS011;10759;51.982;9.232;2023-07-24T11:41:18;4.65;;;4.30;;
21202;SDS011;10759;51.982;9.232;2023-07-24T11:43:48;4.10;;;3.80;;
21202;SDS011;10759;51.982;9.232;2023-07-24T11:46:24;4.50;;;4.10;;
21202;SDS011;10759;51.982;9.232;2023-07-24T11:48:54;4.00;;;3.70;;
21202;SDS011;10759;51.982;9.232;2023-07-24T11:51:25;3.97;;;3.67;;
21202;SDS011;10759;51.982;9.232;2023-07-24T11:54:04;3.92;;;3.63;;
21202;SDS011;10759;51.982;9.232;2023-07-24T11:56:34;4.20;;;3.80;;
21202;SDS011;10759;51.982;9.232;2023-07-24T11:59:09;4.00;;;3.70;;
21202;SDS011;10759;51.982;9.232;2023-07-24T12:01:38;4.07;;;3.75;;
21202;SDS011;10759;51.982;9.232;2023-07-24T12:04:08;4.32;;;4.03;;
21202;SDS011;10759;51.982;9.232;2023-07-24T12:09:05;4.32;;;4.03;;
21202;SDS011;10759;51.982;9.232;2023-07-24T12:11:39;4.43;;;4.10;;
21202;SDS011;10759;51.982;9.232;2023-07-24T12:14:12;4.28;;;3.97;;
21202;SDS011;10759;51.982;9.232;2023-07-24T12:16:41;4.50;;;4.10;;
21202;SDS011;10759;51.982;9.232;2023-07-24T12:19:11;5.38;;;4.68;;
21202;SDS011;10759;51.982;9.232;2023-07-24T12:21:40;4.35;;;3.95;;
21202;SDS011;10759;51.982;9.232;2023-07-24T12:24:08;4.32;;;3.90;;
21202;SDS011;10759;51.982;9.232;2023-07-24T12:26:36;4.03;;;3.72;;
21202;SDS011;10759;51.982;9.232;2023-07-24T12:29:04;4.35;;;3.78;;
21202;SDS011;10759;51.982;9.232;2023-07-24T12:31:32;4.28;;;3.63;;
21202;SDS011;10759;51.982;9.232;2023-07-24T12:34:01;4.28;;;3.90;;
21202;SDS011;10759;51.982;9.232;2023-07-24T12:36:31;4.18;;;3.80;;
21202;SDS011;10759;51.982;9.232;2023-07-24T12:38:59;4.18;;;3.88;;
21202;SDS011;10759;51.982;9.232;2023-07-24T12:41:27;4.18;;;3.55;;
21202;SDS011;10759;51.982;9.232;2023-07-24T12:43:56;6.32;;;4.35;;
21202;SDS011;10759;51.982;9.232;2023-07-24T12:46:26;3.90;;;3.60;;
21202;SDS011;10759;51.982;9.232;2023-07-24T12:48:55;3.67;;;3.47;;
21202;SDS011;10759;51.982;9.232;2023-07-24T12:51:23;4.55;;;4.15;;
21202;SDS011;10759;51.982;9.232;2023-07-24T12:53:52;3.58;;;3.28;;
21202;SDS011;10759;51.982;9.232;2023-07-24T12:56:33;6.05;;;5.55;;
21202;SDS011;10759;51.982;9.232;2023-07-24T12:59:01;6.43;;;5.93;;
21202;SDS011;10759;51.982;9.232;2023-07-24T13:01:30;6.32;;;5.70;;
21202;SDS011;10759;51.982;9.232;2023-07-24T13:03:58;7.05;;;5.47;;
21202;SDS011;10759;51.982;9.232;2023-07-24T13:06:26;5.68;;;5.28;;
21202;SDS011;10759;51.982;9.232;2023-07-24T13:08:56;6.03;;;5.47;;
21202;SDS011;10759;51.982;9.232;2023-07-24T13:11:25;5.40;;;5.05;;
21202;SDS011;10759;51.982;9.232;2023-07-24T13:13:55;6.07;;;5.57;;
21202;SDS011;10759;51.982;9.232;2023-07-24T13:16:23;6.00;;;5.50;;
21202;SDS011;10759;51.982;9.232;2023-07-24T13:18:51;5.85;;;5.43;;
21202;SDS011;10759;51.982;9.232;2023-07-24T13:21:19;6.30;;;5.70;;
21202;SDS011;10759;51.982;9.232;2023-07-24T13:23:47;8.63;;;5.75;;
21202;SDS011;10759;51.982;9.232;2023-07-24T13:26:16;6.47;;;5.78;;
21202;SDS011;10759;51.982;9.232;2023-07-24T13:28:44;6.47;;;5.97;;
21202;SDS011;10759;51.982;9.232;2023-07-24T13:31:12;5.95;;;5.45;;
21202;SDS011;10759;51.982;9.232;2023-07-24T13:33:42;4.35;;;4.15;;
21202;SDS011;10759;51.982;9.232;2023-07-24T13:36:10;4.47;;;4.18;;
21202;SDS011;10759;51.982;9.232;2023-07-24T13:38:38;3.92;;;3.70;;
21202;SDS011;10759;51.982;9.232;2023-07-24T13:41:06;4.30;;;4.00;;
21202;SDS011;10759;51.982;9.232;2023-07-24T13:43:36;5.07;;;4.68;;
21202;SDS011;10759;51.982;9.232;2023-07-24T13:46:04;5.97;;;5.50;;
21202;SDS011;10759;51.982;9.232;2023-07-24T13:48:34;6.25;;;5.35;;
21202;SDS011;10759;51.982;9.232;2023-07-24T13:51:02;5.10;;;4.70;;
21202;SDS011;10759;51.982;9.232;2023-07-24T13:53:30;4.65;;;4.30;;
21202;SDS011;10759;51.982;9.232;2023-07-24T13:55:58;4.70;;;4.30;;
21202;SDS011;10759;51.982;9.232;2023-07-24T13:58:26;2.85;;;2.65;;
21202;SDS011;10759;51.982;9.232;2023-07-24T14:00:55;2.90;;;2.65;;
21202;SDS011;10759;51.982;9.232;2023-07-24T14:03:23;3.20;;;2.87;;
21202;SDS011;10759;51.982;9.232;2023-07-24T14:05:56;2.67;;;2.47;;
21202;SDS011;10759;51.982;9.232;2023-07-24T14:08:24;2.63;;;2.42;;
21202;SDS011;10759;51.982;9.232;2023-07-24T14:10:52;2.70;;;2.47;;
21202;SDS011;10759;51.982;9.232;2023-07-24T14:13:20;3.15;;;2.80;;
21202;SDS011;10759;51.982;9.232;2023-07-24T14:15:48;4.18;;;2.35;;
21202;SDS011;10759;51.982;9.232;2023-07-24T14:18:17;2.70;;;2.50;;
21202;SDS011;10759;51.982;9.232;2023-07-24T14:20:45;5.15;;;3.17;;
21202;SDS011;10759;51.982;9.232;2023-07-24T14:23:13;3.00;;;2.80;;
21202;SDS011;10759;51.982;9.232;2023-07-24T14:25:41;3.05;;;2.55;;
21202;SDS011;10759;51.982;9.232;2023-07-24T14:28:09;2.60;;;2.40;;
21202;SDS011;10759;51.982;9.232;2023-07-24T14:30:37;2.67;;;2.47;;
21202;SDS011;10759;51.982;9.232;2023-07-24T14:33:05;2.35;;;2.00;;
21202;SDS011;10759;51.982;9.232;2023-07-24T14:35:35;2.70;;;2.47;;
21202;SDS011;10759;51.982;9.232;2023-07-24T14:38:03;2.65;;;2.15;;
21202;SDS011;10759;51.982;9.232;2023-07-24T14:40:30;3.25;;;2.60;;
21202;SDS011;10759;51.982;9.232;2023-07-24T14:42:59;3.13;;;2.80;;
21202;SDS011;10759;51.982;9.232;2023-07-24T14:45:28;3.58;;;2.55;;
21202;SDS011;10759;51.982;9.232;2023-07-24T14:47:56;2.80;;;2.60;;
21202;SDS011;10759;51.982;9.232;2023-07-24T14:50:24;2.72;;;2.40;;
21202;SDS011;10759;51.982;9.232;2023-07-24T14:52:54;2.83;;;2.63;;
21202;SDS011;10759;51.982;9.232;2023-07-24T14:55:21;2.83;;;2.57;;
21202;SDS011;10759;51.982;9.232;2023-07-24T14:57:49;3.47;;;2.88;;
21202;SDS011;10759;51.982;9.232;2023-07-24T15:00:17;2.70;;;2.50;;
21202;SDS011;10759;51.982;9.232;2023-07-24T15:02:45;2.55;;;2.42;;
21202;SDS011;10759;51.982;9.232;2023-07-24T15:05:13;3.15;;;2.47;;
21202;SDS011;10759;51.982;9.232;2023-07-24T15:07:42;2.50;;;2.35;;